Terminal Aerodrome Forecast
Issued by NWS

Home | Current Version | Previous Version | Text Only | Print | Product List | Glossary On
Versions: 1 2 3 4 5 6 7 8 9 10 11 12 13 14 15 16
000
FTUS44 KEPZ 311700
TAFDMN
TAF
KDMN 311731Z 3118/0118 14007KT P6SM BKN004 OVC010
     FM311900 14007KT P6SM VCSH BKN009 OVC020
     FM312200 VRB04KT P6SM VCSH BKN025 OVC040
     FM010300 VRB04KT P6SM SCT020 BKN060
     FM010900 27004KT 3SM BR BKN020 BKN070
     FM011600 32005KT P6SM FEW020 SCT070=

USA.gov is the U.S. government's official web portal to all federal, state and local government web resources and services.